createdAt,value
2023-05-22T00:00:22.141Z,16.91
2023-05-22T00:01:22.214Z,16.91
2023-05-22T00:02:22.345Z,16.88
2023-05-22T00:03:22.428Z,16.85
2023-05-22T00:04:22.458Z,16.82
2023-05-22T00:05:22.784Z,16.84
2023-05-22T00:06:22.625Z,16.84
2023-05-22T00:07:22.719Z,16.84
2023-05-22T00:08:22.794Z,16.81
2023-05-22T00:09:22.905Z,16.82
2023-05-22T00:10:22.975Z,16.81
2023-05-22T00:11:23.073Z,16.81
2023-05-22T00:12:23.149Z,16.80
2023-05-22T00:13:23.258Z,16.78
2023-05-22T00:14:23.331Z,16.77
2023-05-22T00:15:23.421Z,16.73
2023-05-22T00:16:23.547Z,16.73
2023-05-22T00:17:23.785Z,16.70
2023-05-22T00:18:23.669Z,16.67
2023-05-22T00:19:23.810Z,16.66
2023-05-22T00:20:23.823Z,16.66
2023-05-22T00:21:23.911Z,16.65
2023-05-22T00:22:23.993Z,16.62
2023-05-22T00:23:24.095Z,16.63
2023-05-22T00:24:24.192Z,16.60
2023-05-22T00:25:24.275Z,16.59
2023-05-22T00:26:24.361Z,16.55
2023-05-22T00:27:24.460Z,16.54
2023-05-22T00:28:24.525Z,16.57
2023-05-22T00:29:24.618Z,16.57
2023-05-22T00:30:24.653Z,16.57
2023-05-22T00:31:24.772Z,16.57
2023-05-22T00:32:24.881Z,16.57
2023-05-22T00:33:24.928Z,16.55
2023-05-22T00:34:25.046Z,16.55
2023-05-22T00:35:25.111Z,16.54
2023-05-22T00:36:25.134Z,16.50
2023-05-22T00:37:25.226Z,16.44
2023-05-22T00:38:25.309Z,16.42
2023-05-22T00:39:25.418Z,16.41
2023-05-22T00:40:25.490Z,16.41
2023-05-22T00:41:25.579Z,16.40
2023-05-22T00:42:25.661Z,16.37
2023-05-22T00:43:25.751Z,16.36
2023-05-22T00:44:25.908Z,16.36
2023-05-22T00:45:25.945Z,16.34
2023-05-22T00:46:26.154Z,16.34
2023-05-22T00:47:26.131Z,16.36
2023-05-22T00:48:26.151Z,16.37
2023-05-22T00:49:26.233Z,16.37
2023-05-22T00:50:26.296Z,16.34
2023-05-22T00:51:26.371Z,16.32
2023-05-22T00:52:26.442Z,16.32
2023-05-22T00:53:26.541Z,16.32
2023-05-22T00:54:26.601Z,16.33
2023-05-22T00:55:26.658Z,16.33
2023-05-22T00:56:26.727Z,16.30
2023-05-22T00:57:26.822Z,16.29
2023-05-22T00:58:26.915Z,16.29
2023-05-22T00:59:27.024Z,16.32
2023-05-22T01:00:27.072Z,16.32
2023-05-22T01:01:27.224Z,16.33
2023-05-22T01:02:27.245Z,16.33
2023-05-22T01:03:27.705Z,16.34
2023-05-22T01:04:27.429Z,16.33
2023-05-22T01:05:27.492Z,16.33
2023-05-22T01:06:27.574Z,16.30
2023-05-22T01:07:27.625Z,16.27
2023-05-22T01:08:27.716Z,16.26
2023-05-22T01:09:27.837Z,16.27
2023-05-22T01:10:27.880Z,16.27
2023-05-22T01:11:27.979Z,16.29
2023-05-22T01:12:28.057Z,16.25
2023-05-22T01:13:28.153Z,16.25
2023-05-22T01:14:28.244Z,16.26
2023-05-22T01:15:28.328Z,16.29
2023-05-22T01:16:28.430Z,16.29
2023-05-22T01:17:28.539Z,16.30
2023-05-22T01:18:28.554Z,16.32
2023-05-22T01:19:28.803Z,16.32
2023-05-22T01:20:28.702Z,16.32
2023-05-22T01:21:28.797Z,16.33
2023-05-22T01:22:28.875Z,16.34
2023-05-22T01:23:28.972Z,16.33
2023-05-22T01:24:29.070Z,16.33
2023-05-22T01:25:29.126Z,16.33
2023-05-22T01:26:29.233Z,16.33
2023-05-22T01:27:29.287Z,16.34
2023-05-22T01:28:29.384Z,16.36
2023-05-22T01:29:29.523Z,16.36
2023-05-22T01:30:29.557Z,16.36
2023-05-22T01:31:29.648Z,16.37
2023-05-22T01:32:29.784Z,16.37
2023-05-22T01:33:29.908Z,16.37
2023-05-22T01:34:29.915Z,16.37
2023-05-22T01:35:29.976Z,16.37
2023-05-22T01:36:30.068Z,16.36
2023-05-22T01:37:30.149Z,16.37
2023-05-22T01:38:30.230Z,16.37
2023-05-22T01:39:30.353Z,16.40
2023-05-22T01:40:30.392Z,16.40
2023-05-22T01:41:30.489Z,16.40
2023-05-22T01:42:30.564Z,16.41
2023-05-22T01:43:30.661Z,16.42
2023-05-22T01:44:30.777Z,16.41
2023-05-22T01:45:30.830Z,16.40
2023-05-22T01:46:30.904Z,16.37
2023-05-22T01:47:31.030Z,16.37
2023-05-22T01:48:31.053Z,16.37
2023-05-22T01:49:31.172Z,16.37
2023-05-22T01:50:31.229Z,16.34
2023-05-22T01:51:31.304Z,16.33
2023-05-22T01:52:31.393Z,16.33
2023-05-22T01:53:31.476Z,16.32
2023-05-22T01:54:31.585Z,16.30
2023-05-22T01:55:31.645Z,16.30
2023-05-22T01:56:31.738Z,16.30
2023-05-22T01:57:31.830Z,16.29
2023-05-22T01:58:31.921Z,16.27
2023-05-22T01:59:32.023Z,16.26
2023-05-22T02:00:32.057Z,16.25
2023-05-22T02:01:32.179Z,16.23
2023-05-22T02:02:32.321Z,16.22
2023-05-22T02:03:32.359Z,16.17
2023-05-22T02:04:32.389Z,16.16
2023-05-22T02:05:32.487Z,16.16
2023-05-22T02:06:32.559Z,16.16
2023-05-22T02:07:32.655Z,16.16
2023-05-22T02:08:32.738Z,16.14
2023-05-22T02:09:32.843Z,16.13
2023-05-22T02:10:32.893Z,16.08
2023-05-22T02:11:32.992Z,16.07
2023-05-22T02:12:33.067Z,16.07
2023-05-22T02:13:33.164Z,16.01
2023-05-22T02:14:33.254Z,15.98
2023-05-22T02:15:33.544Z,15.96
2023-05-22T02:16:33.408Z,15.95
2023-05-22T02:17:33.545Z,15.93
2023-05-22T02:18:33.562Z,15.93
2023-05-22T02:19:33.802Z,15.92
2023-05-22T02:20:33.752Z,15.93
2023-05-22T02:21:33.841Z,15.93
2023-05-22T02:22:33.917Z,15.93
2023-05-22T02:23:34.004Z,15.95
2023-05-22T02:24:34.129Z,15.93
2023-05-22T02:25:34.191Z,15.92
2023-05-22T02:26:34.261Z,15.92
2023-05-22T02:27:34.356Z,15.92
2023-05-22T02:28:34.442Z,15.92
2023-05-22T02:29:34.561Z,15.91
2023-05-22T02:30:34.620Z,15.89
2023-05-22T02:31:34.726Z,15.89
2023-05-22T02:32:34.855Z,15.89
2023-05-22T02:33:34.848Z,15.89
2023-05-22T02:34:34.966Z,15.91
2023-05-22T02:35:35.028Z,15.91
2023-05-22T02:36:35.081Z,15.88
2023-05-22T02:37:35.180Z,15.86
2023-05-22T02:38:35.256Z,15.89
2023-05-22T02:39:35.385Z,15.88
2023-05-22T02:40:35.431Z,15.85
2023-05-22T02:41:35.523Z,15.84
2023-05-22T02:42:35.602Z,15.80
2023-05-22T02:43:35.688Z,15.81
2023-05-22T02:44:35.770Z,15.78
2023-05-22T02:45:35.863Z,15.74
2023-05-22T02:46:35.956Z,15.73
2023-05-22T02:47:36.126Z,15.71
2023-05-22T02:48:36.106Z,15.68
2023-05-22T02:49:36.226Z,15.67
2023-05-22T02:50:36.291Z,15.62
2023-05-22T02:51:36.368Z,15.62
2023-05-22T02:52:36.425Z,15.59
2023-05-22T02:53:36.530Z,15.56
2023-05-22T02:54:36.588Z,15.58
2023-05-22T02:55:36.681Z,15.56
2023-05-22T02:56:36.742Z,15.56
2023-05-22T02:57:36.840Z,15.56
2023-05-22T02:58:36.926Z,15.53
2023-05-22T02:59:37.049Z,15.55
2023-05-22T03:00:37.149Z,15.52
2023-05-22T03:01:37.218Z,15.52
2023-05-22T03:02:37.373Z,15.52
2023-05-22T03:03:37.461Z,15.52
2023-05-22T03:04:37.437Z,15.55
2023-05-22T03:05:37.518Z,15.53
2023-05-22T03:06:37.599Z,15.51
2023-05-22T03:07:37.712Z,15.51
2023-05-22T03:08:37.741Z,15.52
2023-05-22T03:09:37.839Z,15.51
2023-05-22T03:10:38.045Z,15.51
2023-05-22T03:11:37.969Z,15.49
2023-05-22T03:12:38.048Z,15.49
2023-05-22T03:13:38.124Z,15.46
2023-05-22T03:14:38.189Z,15.43
2023-05-22T03:15:38.266Z,15.43
2023-05-22T03:16:38.356Z,15.44
2023-05-22T03:17:38.497Z,15.41
2023-05-22T03:18:38.487Z,15.41
2023-05-22T03:19:38.593Z,15.41
2023-05-22T03:20:38.789Z,15.40
2023-05-22T03:21:38.741Z,15.35
2023-05-22T03:22:38.794Z,15.34
2023-05-22T03:23:38.887Z,15.34
2023-05-22T03:24:39.268Z,15.33
2023-05-22T03:25:39.073Z,15.30
2023-05-22T03:26:39.126Z,15.30
2023-05-22T03:27:39.214Z,15.25
2023-05-22T03:28:39.403Z,15.25
2023-05-22T03:29:39.433Z,15.22
2023-05-22T03:30:39.716Z,15.19
2023-05-22T03:31:39.566Z,15.19
2023-05-22T03:32:39.667Z,15.18
2023-05-22T03:33:39.766Z,15.18
2023-05-22T03:34:39.829Z,15.18
2023-05-22T03:35:39.932Z,15.22
2023-05-22T03:36:40.003Z,15.20
2023-05-22T03:37:40.098Z,15.19
2023-05-22T03:38:40.183Z,15.19
2023-05-22T03:39:40.302Z,15.19
2023-05-22T03:40:40.570Z,15.22
2023-05-22T03:41:40.448Z,15.23
2023-05-22T03:42:40.528Z,15.25
2023-05-22T03:43:42.744Z,15.23
2023-05-22T03:44:40.716Z,15.22
2023-05-22T03:45:40.860Z,15.23
2023-05-22T03:46:40.877Z,15.22
2023-05-22T03:47:41.036Z,15.19
2023-05-22T03:48:41.046Z,15.18
2023-05-22T03:49:41.161Z,15.18
2023-05-22T03:50:41.520Z,15.15
2023-05-22T03:51:41.299Z,15.15
2023-05-22T03:52:41.390Z,15.13
2023-05-22T03:53:41.478Z,15.16
2023-05-22T03:54:41.580Z,15.13
2023-05-22T03:55:41.674Z,15.15
2023-05-22T03:56:41.750Z,15.15
2023-05-22T03:57:41.844Z,15.16
2023-05-22T03:58:41.894Z,15.15
2023-05-22T03:59:42.013Z,15.18
2023-05-22T04:00:42.060Z,15.16
2023-05-22T04:01:42.149Z,15.16
2023-05-22T04:02:42.268Z,15.16
2023-05-22T04:03:42.336Z,15.12
2023-05-22T04:04:42.367Z,15.12
2023-05-22T04:05:42.446Z,15.12
2023-05-22T04:06:42.506Z,15.12
2023-05-22T04:07:42.602Z,15.12
2023-05-22T04:08:42.681Z,15.12
2023-05-22T04:09:42.792Z,15.13
2023-05-22T04:10:42.835Z,15.13
2023-05-22T04:11:42.941Z,15.15
2023-05-22T04:12:42.985Z,15.16
2023-05-22T04:13:43.087Z,15.16
2023-05-22T04:14:43.167Z,15.18
2023-05-22T04:15:43.295Z,15.18
2023-05-22T04:16:43.269Z,15.19
2023-05-22T04:17:43.373Z,15.20
2023-05-22T04:18:43.449Z,15.22
2023-05-22T04:19:43.545Z,15.23
2023-05-22T04:20:43.606Z,15.25
2023-05-22T04:21:43.670Z,15.28
2023-05-22T04:22:43.731Z,15.31
2023-05-22T04:23:43.836Z,15.33
2023-05-22T04:24:43.890Z,15.37
2023-05-22T04:25:43.946Z,15.37
2023-05-22T04:26:44.005Z,15.37
2023-05-22T04:27:44.104Z,15.40
2023-05-22T04:28:44.176Z,15.41
2023-05-22T04:29:44.291Z,15.44
2023-05-22T04:30:44.355Z,15.46
2023-05-22T04:31:44.486Z,15.44
2023-05-22T04:32:44.515Z,15.48
2023-05-22T04:33:44.585Z,15.49
2023-05-22T04:34:44.675Z,15.48
2023-05-22T04:35:44.768Z,15.51
2023-05-22T04:36:44.851Z,15.49
2023-05-22T04:37:44.945Z,15.51
2023-05-22T04:38:45.022Z,15.52
2023-05-22T04:39:45.172Z,15.52
2023-05-22T04:40:45.206Z,15.55
2023-05-22T04:41:45.305Z,15.56
2023-05-22T04:42:45.375Z,15.58
2023-05-22T04:43:45.466Z,15.59
2023-05-22T04:44:45.551Z,15.60
2023-05-22T04:45:45.598Z,15.66
2023-05-22T04:46:45.782Z,15.64
2023-05-22T04:47:45.788Z,15.67
2023-05-22T04:48:45.823Z,15.70
2023-05-22T04:49:45.933Z,15.73
2023-05-22T04:50:45.982Z,15.74
2023-05-22T04:51:46.083Z,15.77
2023-05-22T04:52:46.141Z,15.81
2023-05-22T04:53:46.406Z,15.86
2023-05-22T04:54:46.334Z,15.89
2023-05-22T04:55:46.393Z,15.93
2023-05-22T04:56:46.445Z,15.96
2023-05-22T04:57:46.533Z,15.99
2023-05-22T04:58:46.605Z,16.01
2023-05-22T04:59:46.712Z,16.07
2023-05-22T05:00:46.779Z,16.10
2023-05-22T05:01:46.881Z,16.13
2023-05-22T05:02:47.032Z,16.16
2023-05-22T05:03:47.050Z,16.18
2023-05-22T05:04:47.135Z,16.27
2023-05-22T05:05:47.162Z,16.32
2023-05-22T05:06:47.236Z,16.36
2023-05-22T05:07:49.950Z,16.45
2023-05-22T05:08:47.407Z,16.52
2023-05-22T05:09:47.517Z,16.60
2023-05-22T05:10:47.575Z,16.65
2023-05-22T05:11:47.670Z,16.72
2023-05-22T05:12:47.736Z,16.77
2023-05-22T05:13:47.820Z,16.82
2023-05-22T05:14:47.914Z,16.85
2023-05-22T05:15:48.003Z,16.87
2023-05-22T05:16:48.111Z,16.91
2023-05-22T05:17:48.210Z,16.96
2023-05-22T05:18:48.252Z,16.99
2023-05-22T05:19:48.354Z,17.05
2023-05-22T05:20:48.392Z,17.09
2023-05-22T05:21:48.484Z,17.14
2023-05-22T05:22:48.550Z,17.17
2023-05-22T05:23:48.631Z,17.22
2023-05-22T05:24:48.746Z,17.30
2023-05-22T05:25:48.800Z,17.35
2023-05-22T05:26:48.863Z,17.38
2023-05-22T05:27:48.979Z,17.42
2023-05-22T05:28:49.038Z,17.47
2023-05-22T05:29:49.204Z,17.55
2023-05-22T05:30:49.193Z,17.51
2023-05-22T05:31:49.313Z,17.47
2023-05-22T05:32:49.404Z,17.53
2023-05-22T05:33:49.443Z,17.57
2023-05-22T05:34:49.560Z,17.58
2023-05-22T05:35:49.624Z,17.55
2023-05-22T05:36:49.694Z,17.54
2023-05-22T05:37:49.810Z,17.49
2023-05-22T05:38:49.850Z,17.55
2023-05-22T05:39:49.951Z,17.60
2023-05-22T05:40:50.022Z,17.58
2023-05-22T05:41:50.081Z,17.54
2023-05-22T05:42:50.179Z,17.53
2023-05-22T05:43:50.259Z,17.51
2023-05-22T05:44:50.346Z,17.47
2023-05-22T05:45:50.382Z,17.51
2023-05-22T05:46:50.467Z,17.47
2023-05-22T05:47:50.575Z,17.47
2023-05-22T05:48:50.608Z,17.45
2023-05-22T05:49:50.692Z,17.47
2023-05-22T05:50:50.758Z,17.43
2023-05-22T05:51:50.827Z,17.38
2023-05-22T05:52:50.920Z,17.33
2023-05-22T05:53:50.968Z,17.27
2023-05-22T05:54:51.120Z,17.22
2023-05-22T05:55:51.123Z,17.24
2023-05-22T05:56:51.220Z,17.28
2023-05-22T05:57:51.299Z,17.27
2023-05-22T05:58:51.379Z,17.27
2023-05-22T05:59:51.522Z,17.27
2023-05-22T06:00:51.566Z,17.27
2023-05-22T06:01:51.619Z,17.32
2023-05-22T06:02:51.775Z,17.35
2023-05-22T06:03:51.922Z,17.38
2023-05-22T06:04:51.875Z,17.38
2023-05-22T06:05:51.944Z,17.36
2023-05-22T06:06:51.987Z,17.33
2023-05-22T06:07:52.082Z,17.35
2023-05-22T06:08:52.167Z,17.36
2023-05-22T06:09:52.276Z,17.38
2023-05-22T06:10:52.344Z,17.42
2023-05-22T06:11:52.401Z,17.40
2023-05-22T06:12:52.497Z,17.42
2023-05-22T06:13:52.581Z,17.36
2023-05-22T06:14:52.692Z,17.39
2023-05-22T06:15:52.755Z,17.43
2023-05-22T06:16:52.919Z,17.47
2023-05-22T06:17:52.959Z,17.45
2023-05-22T06:18:53.007Z,17.42
2023-05-22T06:19:53.088Z,17.40
2023-05-22T06:20:53.153Z,17.39
2023-05-22T06:21:53.202Z,17.40
2023-05-22T06:22:53.281Z,17.40
2023-05-22T06:23:53.328Z,17.38
2023-05-22T06:24:53.436Z,17.35
2023-05-22T06:25:53.473Z,17.38
2023-05-22T06:26:53.577Z,17.36
2023-05-22T06:27:53.681Z,17.39
2023-05-22T06:28:53.754Z,17.43
2023-05-22T06:29:54.215Z,17.46
2023-05-22T06:30:53.907Z,17.47
2023-05-22T06:31:54.031Z,17.49
2023-05-22T06:32:54.112Z,17.46
2023-05-22T06:33:54.250Z,17.47
2023-05-22T06:34:54.237Z,17.47
2023-05-22T06:35:54.324Z,17.46
2023-05-22T06:36:54.391Z,17.43
2023-05-22T06:37:54.457Z,17.39
2023-05-22T06:38:54.541Z,17.39
2023-05-22T06:39:54.616Z,17.42
2023-05-22T06:40:54.675Z,17.45
2023-05-22T06:41:54.740Z,17.46
2023-05-22T06:42:54.828Z,17.51
2023-05-22T06:43:54.919Z,17.55
2023-05-22T06:44:55.036Z,17.58
2023-05-22T06:45:55.130Z,17.58
2023-05-22T06:46:55.180Z,17.62
2023-05-22T06:47:55.277Z,17.66
2023-05-22T06:48:55.330Z,17.66
2023-05-22T06:49:55.425Z,17.68
2023-05-22T06:50:55.513Z,17.70
2023-05-22T06:51:55.564Z,17.70
2023-05-22T06:52:55.653Z,17.68
2023-05-22T06:53:55.742Z,17.71
2023-05-22T06:54:55.841Z,17.71
2023-05-22T06:55:55.881Z,17.73
2023-05-22T06:56:55.980Z,17.73
2023-05-22T06:57:56.055Z,17.71
2023-05-22T06:58:56.170Z,17.71
2023-05-22T06:59:56.240Z,17.73
2023-05-22T07:00:56.356Z,17.76
2023-05-22T07:01:56.375Z,17.80
2023-05-22T07:02:56.584Z,17.84
2023-05-22T07:03:56.526Z,17.91
2023-05-22T07:04:56.630Z,17.98
2023-05-22T07:05:56.807Z,18.04
2023-05-22T07:06:56.781Z,18.05
2023-05-22T07:07:56.914Z,18.05
2023-05-22T07:08:56.939Z,18.05
2023-05-22T07:09:57.044Z,18.10
2023-05-22T07:10:57.103Z,18.13
2023-05-22T07:11:57.190Z,18.19
2023-05-22T07:12:57.263Z,18.26
2023-05-22T07:13:57.342Z,18.29
2023-05-22T07:14:57.479Z,18.34
2023-05-22T07:15:57.513Z,18.35
2023-05-22T07:16:57.660Z,18.35
2023-05-22T07:17:57.696Z,18.38
2023-05-22T07:18:57.778Z,18.42
2023-05-22T07:19:57.825Z,18.50
2023-05-22T07:20:57.892Z,18.54
2023-05-22T07:21:57.975Z,18.56
2023-05-22T07:22:58.055Z,18.56
2023-05-22T07:23:58.144Z,18.57
2023-05-22T07:24:58.277Z,18.66
2023-05-22T07:25:58.305Z,18.72
2023-05-22T07:26:58.419Z,18.78
2023-05-22T07:27:58.490Z,18.83
2023-05-22T07:28:58.571Z,18.87
2023-05-22T07:29:58.661Z,18.94
2023-05-22T07:30:58.743Z,19.02
2023-05-22T07:31:58.898Z,19.10
2023-05-22T07:32:59.002Z,19.20
2023-05-22T07:33:59.014Z,19.30
2023-05-22T07:34:59.142Z,19.38
2023-05-22T07:35:59.129Z,19.46
2023-05-22T07:36:59.220Z,19.47
2023-05-22T07:37:59.301Z,19.53
2023-05-22T07:38:59.387Z,19.58
2023-05-22T07:39:59.522Z,19.60
2023-05-22T07:40:59.565Z,19.61
2023-05-22T07:42:01.547Z,19.67
2023-05-22T07:42:59.731Z,19.72
2023-05-22T07:43:59.805Z,19.71
2023-05-22T07:44:59.946Z,19.75
2023-05-22T07:46:00.024Z,19.82
2023-05-22T07:47:00.095Z,19.82
2023-05-22T07:48:00.212Z,19.87
2023-05-22T07:49:00.268Z,19.97
2023-05-22T07:50:00.376Z,20.07
2023-05-22T07:51:00.467Z,20.08
2023-05-22T07:52:00.502Z,20.12
2023-05-22T07:53:00.593Z,20.20
2023-05-22T07:54:00.783Z,20.27
2023-05-22T07:55:00.858Z,20.33
2023-05-22T07:56:00.844Z,20.27
2023-05-22T07:57:00.959Z,20.16
2023-05-22T07:58:01.016Z,20.17
2023-05-22T07:59:01.112Z,20.23
2023-05-22T08:00:01.301Z,20.12
2023-05-22T08:01:01.262Z,20.13
2023-05-22T08:02:01.332Z,20.26
2023-05-22T08:03:01.516Z,20.37
2023-05-22T08:04:01.814Z,20.58
2023-05-22T08:05:01.681Z,21.09
2023-05-22T08:06:01.685Z,21.83
2023-05-22T08:07:01.835Z,22.15
2023-05-22T08:08:01.870Z,22.35
2023-05-22T08:09:01.948Z,22.79
2023-05-22T08:10:02.078Z,23.03
2023-05-22T08:11:04.474Z,23.19
2023-05-22T08:12:02.176Z,23.23
2023-05-22T08:13:02.276Z,23.37
2023-05-22T08:14:02.361Z,23.25
2023-05-22T08:15:02.466Z,23.16
2023-05-22T08:16:02.517Z,23.09
2023-05-22T08:17:02.653Z,22.93
2023-05-22T08:18:02.770Z,22.67
2023-05-22T08:19:02.933Z,22.39
2023-05-22T08:20:02.946Z,22.27
2023-05-22T08:21:02.933Z,22.20
2023-05-22T08:22:02.994Z,22.33
2023-05-22T08:23:03.093Z,22.54
2023-05-22T08:24:03.184Z,22.78
2023-05-22T08:25:03.315Z,22.91
2023-05-22T08:26:03.354Z,22.94
2023-05-22T08:27:03.445Z,23.14
2023-05-22T08:28:03.519Z,23.39
2023-05-22T08:29:03.616Z,23.67
2023-05-22T08:30:03.725Z,23.64
2023-05-22T08:31:03.924Z,23.75
2023-05-22T08:32:03.975Z,23.72
2023-05-22T08:33:03.995Z,23.60
2023-05-22T08:34:04.052Z,23.60
2023-05-22T08:35:04.143Z,23.41
2023-05-22T08:36:04.183Z,23.63
2023-05-22T08:37:04.274Z,23.86
2023-05-22T08:38:04.356Z,23.67
2023-05-22T08:39:04.466Z,23.49
2023-05-22T08:40:04.539Z,23.44
2023-05-22T08:41:04.630Z,23.84
2023-05-22T08:42:04.678Z,24.36
2023-05-22T08:43:04.776Z,24.44
2023-05-22T08:44:04.848Z,24.36
2023-05-22T08:45:04.968Z,24.36
2023-05-22T08:46:05.011Z,24.79
2023-05-22T08:47:05.119Z,24.71
2023-05-22T08:48:05.216Z,24.55
2023-05-22T08:49:05.284Z,24.63
2023-05-22T08:50:05.401Z,24.86
2023-05-22T08:51:05.465Z,24.68
2023-05-22T08:52:05.534Z,24.48
2023-05-22T08:53:05.636Z,24.61
2023-05-22T08:54:05.706Z,24.79
2023-05-22T08:55:05.824Z,25.02
2023-05-22T08:56:05.883Z,25.24
2023-05-22T08:57:05.979Z,25.31
2023-05-22T08:58:06.053Z,25.49
2023-05-22T08:59:06.136Z,25.53
2023-05-22T09:00:06.246Z,25.59
2023-05-22T09:01:06.357Z,25.42
2023-05-22T09:02:06.928Z,25.60
2023-05-22T09:03:06.552Z,25.61
2023-05-22T09:04:06.635Z,25.45
2023-05-22T09:05:06.652Z,25.17
2023-05-22T09:06:06.702Z,25.07
2023-05-22T09:07:06.846Z,24.99
2023-05-22T09:08:19.179Z,24.90
2023-05-22T09:09:06.984Z,25.38
2023-05-22T09:10:07.094Z,25.60
2023-05-22T09:11:07.133Z,25.91
2023-05-22T09:12:07.205Z,26.06
2023-05-22T09:13:07.292Z,26.13
2023-05-22T09:14:07.372Z,25.89
2023-05-22T09:15:07.476Z,25.96
2023-05-22T09:16:07.513Z,26.11
2023-05-22T09:17:07.763Z,26.35
2023-05-22T09:18:07.753Z,26.65
2023-05-22T09:19:07.833Z,26.97
2023-05-22T09:20:07.854Z,26.86
2023-05-22T09:21:21.437Z,26.56
2023-05-22T09:22:08.019Z,26.21
2023-05-22T09:23:08.110Z,25.97
2023-05-22T09:24:08.216Z,25.75
2023-05-22T09:25:08.325Z,25.30
2023-05-22T09:26:08.333Z,24.98
2023-05-22T09:27:08.427Z,24.82
2023-05-22T09:28:08.499Z,24.42
2023-05-22T09:29:08.601Z,24.14
2023-05-22T09:30:08.706Z,24.51
2023-05-22T09:31:08.791Z,24.77
2023-05-22T09:32:08.857Z,24.92
2023-05-22T09:33:09.172Z,24.83
2023-05-22T09:34:08.989Z,24.74
2023-05-22T09:35:09.095Z,24.46
2023-05-22T09:36:09.166Z,24.30
2023-05-22T09:37:09.242Z,24.56
2023-05-22T09:38:10.842Z,24.52
2023-05-22T09:39:09.415Z,24.67
2023-05-22T09:40:09.526Z,24.70
2023-05-22T09:41:09.599Z,24.48
2023-05-22T09:42:09.662Z,24.51
2023-05-22T09:43:09.743Z,24.64
2023-05-22T09:44:09.806Z,24.99
2023-05-22T09:45:09.933Z,25.17
2023-05-22T09:46:10.016Z,25.30
2023-05-22T09:47:10.106Z,25.16
2023-05-22T09:48:10.156Z,25.54
2023-05-22T09:49:11.113Z,25.44
2023-05-22T09:50:10.384Z,25.60
2023-05-22T09:51:10.411Z,25.82
2023-05-22T09:52:10.487Z,26.32
2023-05-22T09:53:10.580Z,26.35
2023-05-22T09:54:10.641Z,26.36
2023-05-22T09:55:10.787Z,26.71
2023-05-22T09:56:10.819Z,26.93
2023-05-22T09:57:10.915Z,26.96
2023-05-22T09:58:10.990Z,26.93
2023-05-22T09:59:11.102Z,26.91
2023-05-22T10:00:11.198Z,26.88
2023-05-22T10:01:11.267Z,26.72
2023-05-22T10:02:11.445Z,26.31
2023-05-22T10:03:11.422Z,26.41
2023-05-22T10:04:11.551Z,26.53
2023-05-22T10:05:11.609Z,26.57
2023-05-22T10:06:11.663Z,26.31
2023-05-22T10:07:11.737Z,26.47
2023-05-22T10:08:11.842Z,26.46
2023-05-22T10:09:11.898Z,26.86
2023-05-22T10:10:12.043Z,27.28
2023-05-22T10:11:12.064Z,27.20
2023-05-22T10:12:12.147Z,27.33
2023-05-22T10:13:12.233Z,27.43
2023-05-22T10:14:12.311Z,26.96
2023-05-22T10:15:12.404Z,26.84
2023-05-22T10:16:12.567Z,26.96
2023-05-22T10:17:13.168Z,27.05
2023-05-22T10:18:12.694Z,26.76
2023-05-22T10:19:12.783Z,26.59
2023-05-22T10:20:12.795Z,26.69
2023-05-22T10:21:12.876Z,26.76
2023-05-22T10:22:12.965Z,26.61
2023-05-22T10:23:13.036Z,26.38
2023-05-22T10:24:13.138Z,26.32
2023-05-22T10:25:13.251Z,26.59
2023-05-22T10:26:13.302Z,26.44
2023-05-22T10:27:13.383Z,26.51
2023-05-22T10:28:13.473Z,26.64
2023-05-22T10:29:13.547Z,26.78
2023-05-22T10:30:13.654Z,26.94
2023-05-22T10:31:13.692Z,26.98
2023-05-22T10:32:13.777Z,26.79
2023-05-22T10:33:13.951Z,26.79
2023-05-22T10:34:13.945Z,26.57
2023-05-22T10:35:14.033Z,26.49
2023-05-22T10:36:14.136Z,26.31
2023-05-22T10:37:18.566Z,26.11
2023-05-22T10:38:14.288Z,26.01
2023-05-22T10:39:14.352Z,26.00
2023-05-22T10:40:14.466Z,26.04
2023-05-22T10:41:14.527Z,25.94
2023-05-22T10:42:14.605Z,25.90
2023-05-22T10:43:14.673Z,25.83
2023-05-22T10:44:14.762Z,25.59
2023-05-22T10:45:14.870Z,25.53
2023-05-22T10:46:14.985Z,25.54
2023-05-22T10:47:15.019Z,25.48
2023-05-22T10:48:15.112Z,25.35
2023-05-22T10:49:15.191Z,25.27
2023-05-22T10:50:15.310Z,25.27
2023-05-22T10:51:15.373Z,25.35
2023-05-22T10:52:15.476Z,25.29
2023-05-22T10:53:15.563Z,25.31
2023-05-22T10:54:15.622Z,25.44
2023-05-22T10:55:15.748Z,25.53
2023-05-22T10:56:15.806Z,25.51
2023-05-22T10:57:15.862Z,25.59
2023-05-22T10:58:15.959Z,25.56
2023-05-22T10:59:16.042Z,25.56
2023-05-22T11:00:16.173Z,25.59
2023-05-22T11:01:16.320Z,25.72
2023-05-22T11:02:16.366Z,25.72
2023-05-22T11:03:18.434Z,25.57
2023-05-22T11:04:16.494Z,25.41
2023-05-22T11:05:16.641Z,25.20
2023-05-22T11:06:16.669Z,25.08
2023-05-22T11:07:16.740Z,25.01
2023-05-22T11:08:18.882Z,25.11
2023-05-22T11:09:16.915Z,25.07
2023-05-22T11:10:17.033Z,25.02
2023-05-22T11:11:17.069Z,24.99
2023-05-22T11:12:17.215Z,25.12
2023-05-22T11:13:17.229Z,25.26
2023-05-22T11:14:17.339Z,25.22
2023-05-22T11:15:17.411Z,25.07
2023-05-22T11:16:17.501Z,24.97
2023-05-22T11:17:17.657Z,25.02
2023-05-22T11:18:17.679Z,25.08
2023-05-22T11:20:17.859Z,24.92
2023-05-22T11:21:17.879Z,24.98
2023-05-22T11:22:17.968Z,25.08
2023-05-22T11:23:18.043Z,25.26
2023-05-22T11:24:18.270Z,25.35
2023-05-22T11:25:18.234Z,25.26
2023-05-22T11:26:18.316Z,25.11
2023-05-22T11:27:18.387Z,24.83
2023-05-22T11:28:18.476Z,24.74
2023-05-22T11:29:18.556Z,24.66
2023-05-22T11:30:18.657Z,24.37
2023-05-22T11:31:18.867Z,24.23
2023-05-22T11:32:18.829Z,24.19
2023-05-22T11:33:19.022Z,24.21
2023-05-22T11:34:18.992Z,24.30
2023-05-22T11:35:19.105Z,24.42
2023-05-22T11:36:19.181Z,24.61
2023-05-22T11:37:19.258Z,24.80
2023-05-22T11:38:19.357Z,24.89
2023-05-22T11:39:19.444Z,24.92
2023-05-22T11:40:19.556Z,25.05
2023-05-22T11:41:19.589Z,25.19
2023-05-22T11:42:19.689Z,25.24
2023-05-22T11:43:19.759Z,25.08
2023-05-22T11:44:19.865Z,24.97
2023-05-22T11:45:19.950Z,24.86
2023-05-22T11:46:20.056Z,24.86
2023-05-22T11:47:20.075Z,24.89
2023-05-22T11:48:20.161Z,24.79
2023-05-22T11:49:20.237Z,24.80
2023-05-22T11:50:33.542Z,24.84
2023-05-22T11:51:20.395Z,24.86
2023-05-22T11:52:20.481Z,24.89
2023-05-22T11:53:20.554Z,24.80
2023-05-22T11:54:20.645Z,24.75
2023-05-22T11:55:20.749Z,24.60
2023-05-22T11:56:20.826Z,24.45
2023-05-22T11:57:20.896Z,24.45
2023-05-22T11:58:21.060Z,24.24
2023-05-22T11:59:21.039Z,24.26
2023-05-22T12:00:21.191Z,24.30
2023-05-22T12:01:21.208Z,24.21
2023-05-22T12:02:21.309Z,24.12
2023-05-22T12:03:21.473Z,24.15
2023-05-22T12:04:21.655Z,24.26
2023-05-22T12:05:21.549Z,24.42
2023-05-22T12:06:21.608Z,24.64
2023-05-22T12:07:21.668Z,24.82
2023-05-22T12:08:21.781Z,24.97
2023-05-22T12:09:21.842Z,25.07
2023-05-22T12:10:21.947Z,25.16
2023-05-22T12:11:22.017Z,25.05
2023-05-22T12:12:22.681Z,25.08
2023-05-22T12:13:22.172Z,25.14
2023-05-22T12:14:22.256Z,25.20
2023-05-22T12:15:22.338Z,25.29
2023-05-22T12:16:22.485Z,25.31
2023-05-22T12:17:22.497Z,25.22
2023-05-22T12:18:22.579Z,25.16
2023-05-22T12:19:22.708Z,25.16
2023-05-22T12:20:22.757Z,25.09
2023-05-22T12:21:22.823Z,25.12
2023-05-22T12:22:23.436Z,25.05
2023-05-22T12:23:23.004Z,24.99
2023-05-22T12:24:23.086Z,25.01
2023-05-22T12:25:23.266Z,24.98
2023-05-22T12:26:23.272Z,24.92
2023-05-22T12:27:23.357Z,24.86
2023-05-22T12:28:23.434Z,24.82
2023-05-22T12:29:23.544Z,24.75
2023-05-22T12:30:23.623Z,24.79
2023-05-22T12:31:23.660Z,24.60
2023-05-22T12:32:23.849Z,24.52
2023-05-22T12:33:23.804Z,24.56
2023-05-22T12:34:23.905Z,24.60
2023-05-22T12:35:23.999Z,24.60
2023-05-22T12:36:24.068Z,24.66
2023-05-22T12:37:24.144Z,24.68
2023-05-22T12:38:24.247Z,24.79
2023-05-22T12:39:24.313Z,24.89
2023-05-22T12:40:24.442Z,24.92
2023-05-22T12:41:24.492Z,24.93
2023-05-22T12:42:24.597Z,24.99
2023-05-22T12:43:24.671Z,25.01
2023-05-22T12:44:24.768Z,25.07
2023-05-22T12:45:24.861Z,25.05
2023-05-22T12:46:24.953Z,25.02
2023-05-22T12:47:25.121Z,24.98
2023-05-22T12:48:25.082Z,24.87
2023-05-22T12:49:25.160Z,24.79
2023-05-22T12:50:25.293Z,24.80
2023-05-22T12:51:25.331Z,24.71
2023-05-22T12:52:25.418Z,24.64
2023-05-22T12:53:25.499Z,24.56
2023-05-22T12:54:25.680Z,24.55